createdAt,value
2017-03-06T00:00:05.430Z,0
2017-03-06T00:00:45.993Z,0
2017-03-06T00:01:26.431Z,0
2017-03-06T00:02:06.989Z,0
2017-03-06T00:02:47.456Z,0
2017-03-06T00:03:27.983Z,0
2017-03-06T00:04:08.458Z,0
2017-03-06T00:04:48.956Z,0
2017-03-06T00:05:29.551Z,0
2017-03-06T00:06:10.120Z,0
2017-03-06T00:06:50.583Z,0
2017-03-06T00:07:31.042Z,0
2017-03-06T00:08:11.548Z,0
2017-03-06T00:08:52.049Z,0
2017-03-06T00:09:32.543Z,0
2017-03-06T00:10:13.104Z,0
2017-03-06T00:10:53.600Z,0
2017-03-06T00:11:34.084Z,0
2017-03-06T00:12:14.561Z,0
2017-03-06T00:12:55.082Z,0
2017-03-06T00:13:35.583Z,0
2017-03-06T00:14:16.067Z,0
2017-03-06T00:14:56.545Z,0
2017-03-06T00:15:37.049Z,0
2017-03-06T00:16:17.702Z,0
2017-03-06T00:16:58.180Z,0
2017-03-06T00:17:38.670Z,0
2017-03-06T00:18:19.153Z,0
2017-03-06T00:18:59.675Z,0
2017-03-06T00:19:40.153Z,0
2017-03-06T00:20:20.799Z,0
2017-03-06T00:21:01.301Z,0
2017-03-06T00:21:41.721Z,0
2017-03-06T00:22:22.233Z,0
2017-03-06T00:23:02.795Z,0
2017-03-06T00:23:43.293Z,0
2017-03-06T00:24:23.799Z,0
2017-03-06T00:25:04.244Z,0
2017-03-06T00:25:44.799Z,0
2017-03-06T00:26:25.240Z,0
2017-03-06T00:27:05.729Z,0
2017-03-06T00:27:46.219Z,0
2017-03-06T00:28:26.665Z,0
2017-03-06T00:29:07.230Z,0
2017-03-06T00:29:47.697Z,0
2017-03-06T00:30:28.289Z,0
2017-03-06T00:31:08.718Z,0
2017-03-06T00:31:49.204Z,0
2017-03-06T00:32:29.722Z,0
2017-03-06T00:33:10.204Z,0
2017-03-06T00:33:50.633Z,0
2017-03-06T00:34:31.126Z,0
2017-03-06T00:35:11.638Z,0
2017-03-06T00:35:52.460Z,0
2017-03-06T00:36:32.956Z,0
2017-03-06T00:37:13.478Z,0
2017-03-06T00:37:53.943Z,0
2017-03-06T00:38:34.411Z,0
2017-03-06T00:39:14.923Z,0
2017-03-06T00:39:55.387Z,0
2017-03-06T00:40:35.968Z,0
2017-03-06T00:41:16.403Z,0
2017-03-06T00:41:57.009Z,0
2017-03-06T00:42:37.441Z,0
2017-03-06T00:43:17.947Z,0
2017-03-06T00:43:58.472Z,0
2017-03-06T00:44:38.997Z,0
2017-03-06T00:45:19.657Z,0
2017-03-06T00:46:00.409Z,0
2017-03-06T00:46:40.854Z,0
2017-03-06T00:47:21.335Z,0
2017-03-06T00:48:01.851Z,0
2017-03-06T00:48:42.361Z,0
2017-03-06T00:49:22.887Z,0
2017-03-06T00:50:03.404Z,0
2017-03-06T00:50:44.054Z,0
2017-03-06T00:51:24.450Z,0
2017-03-06T00:52:04.985Z,0
2017-03-06T00:52:45.449Z,0
2017-03-06T00:53:25.988Z,0
2017-03-06T00:54:06.502Z,0
2017-03-06T00:54:46.992Z,0
2017-03-06T00:55:27.567Z,0
2017-03-06T00:56:08.060Z,0
2017-03-06T00:56:48.481Z,0
2017-03-06T00:57:29.034Z,0
2017-03-06T00:58:09.511Z,0
2017-03-06T00:58:49.993Z,0
2017-03-06T00:59:30.465Z,0
2017-03-06T01:00:10.984Z,0
2017-03-06T01:00:51.560Z,0
2017-03-06T01:01:31.984Z,0
2017-03-06T01:02:12.525Z,0
2017-03-06T01:02:52.985Z,0
2017-03-06T01:03:33.476Z,0
2017-03-06T01:04:14.009Z,0
2017-03-06T01:04:54.534Z,0
2017-03-06T01:05:34.988Z,0
2017-03-06T01:06:15.552Z,0
2017-03-06T01:06:56.073Z,0
2017-03-06T01:07:36.537Z,0
2017-03-06T01:08:17.062Z,0
2017-03-06T01:08:57.532Z,0
2017-03-06T01:09:38.073Z,0
2017-03-06T01:10:18.588Z,0
2017-03-06T01:10:59.091Z,0
2017-03-06T01:11:39.569Z,0
2017-03-06T01:12:20.078Z,0
2017-03-06T01:13:00.596Z,0
2017-03-06T01:13:41.097Z,0
2017-03-06T01:14:21.598Z,0
2017-03-06T01:15:02.102Z,0
2017-03-06T01:15:42.625Z,0
2017-03-06T01:16:23.096Z,0
2017-03-06T01:17:03.599Z,0
2017-03-06T01:17:44.100Z,0
2017-03-06T01:18:24.636Z,0
2017-03-06T01:19:05.081Z,0
2017-03-06T01:19:45.638Z,0
2017-03-06T01:20:26.174Z,0
2017-03-06T01:21:06.595Z,0
2017-03-06T01:21:47.125Z,0
2017-03-06T01:22:27.595Z,0
2017-03-06T01:23:08.090Z,0
2017-03-06T01:23:48.591Z,0
2017-03-06T01:24:29.107Z,0
2017-03-06T01:25:09.627Z,0
2017-03-06T01:25:50.243Z,0
2017-03-06T01:26:30.731Z,0
2017-03-06T01:27:11.197Z,0
2017-03-06T01:27:51.711Z,0
2017-03-06T01:28:32.192Z,0
2017-03-06T01:29:12.696Z,0
2017-03-06T01:29:53.192Z,0
2017-03-06T01:30:33.796Z,0
2017-03-06T01:31:14.244Z,0
2017-03-06T01:31:54.710Z,0
2017-03-06T01:32:35.181Z,0
2017-03-06T01:33:15.680Z,0
2017-03-06T01:33:56.182Z,0
2017-03-06T01:34:36.679Z,0
2017-03-06T01:35:17.256Z,0
2017-03-06T01:35:57.678Z,0
2017-03-06T01:36:38.203Z,0
2017-03-06T01:37:18.708Z,0
2017-03-06T01:37:59.225Z,0
2017-03-06T01:38:39.729Z,0
2017-03-06T01:39:20.261Z,0
2017-03-06T01:40:00.741Z,0
2017-03-06T01:40:41.344Z,0
2017-03-06T01:41:21.753Z,0
2017-03-06T01:42:02.235Z,0
2017-03-06T01:42:42.773Z,0
2017-03-06T01:43:23.304Z,0
2017-03-06T01:44:03.779Z,0
2017-03-06T01:44:44.248Z,0
2017-03-06T01:45:24.847Z,0
2017-03-06T01:46:05.472Z,0
2017-03-06T01:46:45.933Z,0
2017-03-06T01:47:26.513Z,0
2017-03-06T01:48:06.959Z,0
2017-03-06T01:48:47.478Z,0
2017-03-06T01:49:27.998Z,0
2017-03-06T01:50:08.491Z,0
2017-03-06T01:50:49.015Z,0
2017-03-06T01:51:29.476Z,0
2017-03-06T01:52:09.995Z,0
2017-03-06T01:52:50.483Z,0
2017-03-06T01:53:31.008Z,0
2017-03-06T01:54:11.514Z,0
2017-03-06T01:54:51.995Z,0
2017-03-06T01:55:32.530Z,0
2017-03-06T01:56:13.016Z,0
2017-03-06T01:56:53.624Z,0
2017-03-06T01:57:34.096Z,0
2017-03-06T01:58:14.616Z,0
2017-03-06T01:58:55.118Z,0
2017-03-06T01:59:35.636Z,0
2017-03-06T02:00:16.188Z,0
2017-03-06T02:00:56.750Z,0
2017-03-06T02:01:37.195Z,0
2017-03-06T02:02:17.714Z,0
2017-03-06T02:02:58.211Z,0
2017-03-06T02:03:38.732Z,0
2017-03-06T02:04:19.232Z,0
2017-03-06T02:04:59.734Z,0
2017-03-06T02:05:40.340Z,0
2017-03-06T02:06:20.770Z,0
2017-03-06T02:07:01.269Z,0
2017-03-06T02:07:41.813Z,0
2017-03-06T02:08:22.296Z,0
2017-03-06T02:09:02.828Z,0
2017-03-06T02:09:43.339Z,0
2017-03-06T02:10:23.866Z,0
2017-03-06T02:11:04.461Z,0
2017-03-06T02:11:44.899Z,0
2017-03-06T02:12:25.392Z,0
2017-03-06T02:13:05.938Z,0
2017-03-06T02:13:46.410Z,0
2017-03-06T02:14:26.904Z,0
2017-03-06T02:15:07.405Z,0
2017-03-06T02:15:48.104Z,0
2017-03-06T02:16:28.502Z,0
2017-03-06T02:17:08.978Z,0
2017-03-06T02:17:49.488Z,0
2017-03-06T02:18:30.056Z,0
2017-03-06T02:19:10.550Z,0
2017-03-06T02:19:51.095Z,0
2017-03-06T02:20:31.665Z,0
2017-03-06T02:21:12.125Z,0
2017-03-06T02:21:52.624Z,0
2017-03-06T02:22:33.079Z,0
2017-03-06T02:23:13.620Z,0
2017-03-06T02:23:54.099Z,0
2017-03-06T02:24:34.598Z,0
2017-03-06T02:25:15.101Z,0
2017-03-06T02:25:55.688Z,0
2017-03-06T02:26:36.120Z,0
2017-03-06T02:27:16.613Z,0
2017-03-06T02:27:57.108Z,0
2017-03-06T02:28:37.554Z,0
2017-03-06T02:29:18.055Z,0
2017-03-06T02:29:58.586Z,0
2017-03-06T02:30:39.186Z,0
2017-03-06T02:31:19.617Z,0
2017-03-06T02:32:00.146Z,0
2017-03-06T02:32:40.618Z,0
2017-03-06T02:33:21.130Z,0
2017-03-06T02:34:01.642Z,0
2017-03-06T02:34:42.157Z,0
2017-03-06T02:35:22.714Z,0
2017-03-06T02:36:03.225Z,0
2017-03-06T02:36:43.691Z,0
2017-03-06T02:37:24.205Z,0
2017-03-06T02:38:04.656Z,0
2017-03-06T02:38:45.172Z,0
2017-03-06T02:39:25.639Z,0
2017-03-06T02:40:06.124Z,0
2017-03-06T02:40:46.773Z,0
2017-03-06T02:41:27.213Z,0
2017-03-06T02:42:07.699Z,0
2017-03-06T02:42:48.205Z,0
2017-03-06T02:43:28.693Z,0
2017-03-06T02:44:09.215Z,0
2017-03-06T02:44:49.708Z,0
2017-03-06T02:45:30.292Z,0
2017-03-06T02:46:10.842Z,0
2017-03-06T02:46:51.314Z,0
2017-03-06T02:47:31.804Z,0
2017-03-06T02:48:12.331Z,0
2017-03-06T02:48:52.832Z,0
2017-03-06T02:49:33.340Z,0
2017-03-06T02:50:13.904Z,0
2017-03-06T02:50:54.433Z,0
2017-03-06T02:51:34.888Z,0
2017-03-06T02:52:15.407Z,0
2017-03-06T02:52:55.909Z,0
2017-03-06T02:53:36.410Z,0
2017-03-06T02:54:16.937Z,0
2017-03-06T02:54:57.447Z,0
2017-03-06T02:55:38.015Z,0
2017-03-06T02:56:18.548Z,0
2017-03-06T02:56:59.061Z,0
2017-03-06T02:57:39.584Z,0
2017-03-06T02:58:20.085Z,0
2017-03-06T02:59:00.591Z,0
2017-03-06T02:59:41.085Z,0
2017-03-06T03:00:21.597Z,0
2017-03-06T03:01:02.146Z,0
2017-03-06T03:01:42.586Z,0
2017-03-06T03:02:23.082Z,0
2017-03-06T03:03:03.620Z,0
2017-03-06T03:03:44.113Z,0
2017-03-06T03:04:24.621Z,0
2017-03-06T03:05:05.132Z,0
2017-03-06T03:05:45.688Z,0
2017-03-06T03:06:26.178Z,0
2017-03-06T03:07:06.634Z,0
2017-03-06T03:07:47.156Z,0
2017-03-06T03:08:27.658Z,0
2017-03-06T03:09:08.175Z,0
2017-03-06T03:09:48.677Z,0
2017-03-06T03:10:29.233Z,0
2017-03-06T03:11:09.678Z,0
2017-03-06T03:11:50.180Z,0
2017-03-06T03:12:30.674Z,0
2017-03-06T03:13:11.182Z,0
2017-03-06T03:13:51.657Z,0
2017-03-06T03:14:32.160Z,0
2017-03-06T03:15:12.669Z,0
2017-03-06T03:15:53.214Z,0
2017-03-06T03:16:33.637Z,0
2017-03-06T03:17:14.128Z,0
2017-03-06T03:17:54.659Z,0
2017-03-06T03:18:35.143Z,0
2017-03-06T03:19:15.654Z,0
2017-03-06T03:19:56.157Z,0
2017-03-06T03:20:36.680Z,0
2017-03-06T03:21:17.171Z,0
2017-03-06T03:21:57.650Z,0
2017-03-06T03:22:38.157Z,0
2017-03-06T03:23:18.672Z,0
2017-03-06T03:23:59.180Z,0
2017-03-06T03:24:39.695Z,0
2017-03-06T03:25:20.223Z,0
2017-03-06T03:26:00.767Z,0
2017-03-06T03:26:41.250Z,0
2017-03-06T03:27:21.766Z,0
2017-03-06T03:28:02.271Z,0
2017-03-06T03:28:42.764Z,0
2017-03-06T03:29:23.292Z,0
2017-03-06T03:30:03.850Z,0
2017-03-06T03:30:44.380Z,0
2017-03-06T03:31:24.810Z,0
2017-03-06T03:32:05.332Z,0
2017-03-06T03:32:45.823Z,0
2017-03-06T03:33:26.295Z,0
2017-03-06T03:34:06.786Z,0
2017-03-06T03:34:47.259Z,0
2017-03-06T03:35:27.834Z,0
2017-03-06T03:36:08.298Z,0
2017-03-06T03:36:48.791Z,0
2017-03-06T03:37:29.288Z,0
2017-03-06T03:38:09.751Z,0
2017-03-06T03:38:50.313Z,0
2017-03-06T03:39:30.810Z,0
2017-03-06T03:40:11.444Z,0
2017-03-06T03:40:51.938Z,0
2017-03-06T03:41:32.362Z,0
2017-03-06T03:42:12.890Z,0
2017-03-06T03:42:53.401Z,0
2017-03-06T03:43:33.869Z,0
2017-03-06T03:44:14.367Z,0
2017-03-06T03:44:54.860Z,0
2017-03-06T03:45:35.407Z,0
2017-03-06T03:46:15.847Z,0
2017-03-06T03:46:56.362Z,0
2017-03-06T03:47:36.873Z,0
2017-03-06T03:48:17.409Z,0
2017-03-06T03:48:57.922Z,0
2017-03-06T03:49:38.370Z,0
2017-03-06T03:50:19.017Z,0
2017-03-06T03:50:59.437Z,0
2017-03-06T03:51:40.773Z,0
2017-03-06T03:52:20.422Z,0
2017-03-06T03:53:00.918Z,0
2017-03-06T03:53:41.411Z,0
2017-03-06T03:54:21.973Z,0
2017-03-06T03:55:02.537Z,0
2017-03-06T03:55:43.079Z,0
2017-03-06T03:56:23.492Z,0
2017-03-06T03:57:04.113Z,0
2017-03-06T03:57:44.584Z,0
2017-03-06T03:58:25.098Z,0
2017-03-06T03:59:05.572Z,0
2017-03-06T03:59:46.060Z,0
2017-03-06T04:00:26.559Z,0
2017-03-06T04:01:07.095Z,0
2017-03-06T04:01:47.532Z,0
2017-03-06T04:02:28.076Z,0
2017-03-06T04:03:08.571Z,0
2017-03-06T04:03:49.042Z,0
2017-03-06T04:04:29.583Z,0
2017-03-06T04:05:10.069Z,0
2017-03-06T04:05:50.662Z,0
2017-03-06T04:06:31.090Z,0
2017-03-06T04:07:11.538Z,0
2017-03-06T04:07:52.068Z,0
2017-03-06T04:08:32.543Z,0
2017-03-06T04:09:13.047Z,0
2017-03-06T04:09:53.633Z,0
2017-03-06T04:10:34.142Z,0
2017-03-06T04:11:14.586Z,0
2017-03-06T04:11:55.045Z,0
2017-03-06T04:12:35.556Z,0
2017-03-06T04:13:16.068Z,0
2017-03-06T04:13:56.549Z,0
2017-03-06T04:14:37.028Z,0
2017-03-06T04:15:17.574Z,0
2017-03-06T04:15:58.074Z,0
2017-03-06T04:16:38.541Z,0
2017-03-06T04:17:19.056Z,0
2017-03-06T04:17:59.546Z,0
2017-03-06T04:18:40.054Z,0
2017-03-06T04:19:20.529Z,0
2017-03-06T04:20:01.026Z,0
2017-03-06T04:20:41.622Z,0
2017-03-06T04:21:22.049Z,0
2017-03-06T04:22:02.559Z,0
2017-03-06T04:22:43.057Z,0
2017-03-06T04:23:23.527Z,0
2017-03-06T04:24:04.025Z,0
2017-03-06T04:24:44.497Z,0
2017-03-06T04:25:24.981Z,0
2017-03-06T04:26:05.655Z,0
2017-03-06T04:26:46.135Z,0
2017-03-06T04:27:26.622Z,0
2017-03-06T04:28:07.101Z,0
2017-03-06T04:28:47.586Z,0
2017-03-06T04:29:28.109Z,0
2017-03-06T04:30:08.598Z,0
2017-03-06T04:30:49.140Z,0
2017-03-06T04:31:29.604Z,0
2017-03-06T04:32:10.092Z,0
2017-03-06T04:32:50.601Z,0
2017-03-06T04:33:31.067Z,0
2017-03-06T04:34:11.562Z,0
2017-03-06T04:34:52.084Z,0
2017-03-06T04:35:32.676Z,0
2017-03-06T04:36:13.107Z,0
2017-03-06T04:36:53.674Z,0
2017-03-06T04:37:34.105Z,0
2017-03-06T04:38:14.625Z,0
2017-03-06T04:38:55.106Z,0
2017-03-06T04:39:35.626Z,0
2017-03-06T04:40:16.138Z,0
2017-03-06T04:40:56.704Z,0
2017-03-06T04:41:37.068Z,0
2017-03-06T04:42:17.568Z,0
2017-03-06T04:42:58.063Z,0
2017-03-06T04:43:38.531Z,0
2017-03-06T04:44:19.046Z,0
2017-03-06T04:44:59.553Z,0
2017-03-06T04:45:40.108Z,0
2017-03-06T04:46:20.583Z,0
2017-03-06T04:47:01.086Z,0
2017-03-06T04:47:41.576Z,0
2017-03-06T04:48:22.057Z,0
2017-03-06T04:49:02.572Z,0
2017-03-06T04:49:43.070Z,0
2017-03-06T04:50:23.559Z,0
2017-03-06T04:51:04.055Z,0
2017-03-06T04:51:44.534Z,0
2017-03-06T04:52:25.041Z,0
2017-03-06T04:53:05.527Z,0
2017-03-06T04:53:46.035Z,0
2017-03-06T04:54:26.556Z,0
2017-03-06T04:55:07.053Z,0
2017-03-06T04:55:47.713Z,0
2017-03-06T04:56:28.108Z,0
2017-03-06T04:57:08.585Z,0
2017-03-06T04:57:49.079Z,0
2017-03-06T04:58:29.605Z,0
2017-03-06T04:59:10.063Z,0
2017-03-06T04:59:50.568Z,0
2017-03-06T05:00:31.121Z,0
2017-03-06T05:01:11.721Z,0
2017-03-06T05:01:52.222Z,0
2017-03-06T05:02:32.724Z,0
2017-03-06T05:03:13.158Z,0
2017-03-06T05:03:53.662Z,0
2017-03-06T05:04:34.161Z,0
2017-03-06T05:05:14.739Z,0
2017-03-06T05:05:55.219Z,0
2017-03-06T05:06:35.705Z,0
2017-03-06T05:07:16.186Z,0
2017-03-06T05:07:56.697Z,0
2017-03-06T05:08:37.207Z,0
2017-03-06T05:09:17.695Z,0
2017-03-06T05:09:58.211Z,0
2017-03-06T05:10:38.738Z,0
2017-03-06T05:11:19.203Z,0
2017-03-06T05:11:59.708Z,0
2017-03-06T05:12:40.203Z,0
2017-03-06T05:13:20.679Z,0
2017-03-06T05:14:01.246Z,0
2017-03-06T05:14:41.734Z,0
2017-03-06T05:15:22.261Z,0
2017-03-06T05:16:02.865Z,0
2017-03-06T05:16:43.348Z,0
2017-03-06T05:17:23.870Z,0
2017-03-06T05:18:04.398Z,0
2017-03-06T05:18:44.889Z,0
2017-03-06T05:19:25.419Z,0
2017-03-06T05:20:05.894Z,0
2017-03-06T05:20:46.453Z,0
2017-03-06T05:21:26.931Z,0
2017-03-06T05:22:07.422Z,0
2017-03-06T05:22:47.844Z,0
2017-03-06T05:23:28.347Z,0
2017-03-06T05:24:08.824Z,0
2017-03-06T05:24:49.353Z,0
2017-03-06T05:25:29.923Z,0
2017-03-06T05:26:10.369Z,0
2017-03-06T05:26:50.871Z,0
2017-03-06T05:27:31.355Z,0
2017-03-06T05:28:11.845Z,0
2017-03-06T05:28:52.349Z,0
2017-03-06T05:29:32.840Z,0
2017-03-06T05:30:13.356Z,0
2017-03-06T05:30:53.920Z,0
2017-03-06T05:31:35.296Z,0
2017-03-06T05:32:15.864Z,0
2017-03-06T05:32:56.345Z,0
2017-03-06T05:33:36.845Z,0
2017-03-06T05:34:17.355Z,0
2017-03-06T05:34:57.914Z,0
2017-03-06T05:35:38.441Z,0
2017-03-06T05:36:18.890Z,0
2017-03-06T05:36:59.395Z,0
2017-03-06T05:37:39.890Z,0
2017-03-06T05:38:20.361Z,0
2017-03-06T05:39:00.886Z,0
2017-03-06T05:39:41.350Z,0
2017-03-06T05:40:22.046Z,0
2017-03-06T05:41:02.622Z,0
2017-03-06T05:43:15.405Z,0
2017-03-06T05:43:55.918Z,0
2017-03-06T05:44:36.434Z,0
2017-03-06T05:45:17.031Z,0
2017-03-06T05:45:57.563Z,0
2017-03-06T05:46:38.091Z,0
2017-03-06T05:47:18.579Z,0
2017-03-06T05:47:59.082Z,0
2017-03-06T05:48:39.626Z,0
2017-03-06T05:49:20.087Z,0
2017-03-06T05:50:00.595Z,0
2017-03-06T05:50:41.115Z,0
2017-03-06T05:51:21.624Z,0
2017-03-06T05:52:02.129Z,0
2017-03-06T05:52:42.643Z,0
2017-03-06T05:53:23.142Z,0
2017-03-06T05:54:03.643Z,0
2017-03-06T05:54:44.126Z,0
2017-03-06T05:55:24.845Z,0
2017-03-06T05:56:05.204Z,0
2017-03-06T05:56:45.689Z,0
2017-03-06T05:57:26.211Z,0
2017-03-06T05:58:06.799Z,0
2017-03-06T05:58:47.317Z,0
2017-03-06T05:59:27.851Z,0
2017-03-06T06:00:08.318Z,0
2017-03-06T06:00:48.886Z,0
2017-03-06T06:01:29.381Z,0
2017-03-06T06:02:09.858Z,0
2017-03-06T06:02:50.290Z,0
2017-03-06T06:03:30.818Z,0
2017-03-06T06:04:11.353Z,0
2017-03-06T06:04:51.852Z,0
2017-03-06T06:05:32.432Z,0
2017-03-06T06:06:12.861Z,0
2017-03-06T06:06:53.479Z,0
2017-03-06T06:07:33.857Z,0
2017-03-06T06:08:14.306Z,0
2017-03-06T06:08:54.787Z,0
2017-03-06T06:09:35.285Z,0
2017-03-06T06:10:15.884Z,0
2017-03-06T06:10:56.353Z,0
2017-03-06T06:11:36.768Z,0
2017-03-06T06:12:17.293Z,0
2017-03-06T06:12:57.764Z,0
2017-03-06T06:13:38.261Z,0
2017-03-06T06:14:18.780Z,5
2017-03-06T06:14:59.272Z,5
2017-03-06T06:15:39.776Z,10
2017-03-06T06:16:20.496Z,10
2017-03-06T06:17:00.960Z,10
2017-03-06T06:17:41.455Z,10
2017-03-06T06:18:21.918Z,10
2017-03-06T06:19:02.482Z,10
2017-03-06T06:19:42.914Z,10
2017-03-06T06:20:23.477Z,10
2017-03-06T06:21:04.027Z,10
2017-03-06T06:21:44.474Z,10
2017-03-06T06:22:25.015Z,15
2017-03-06T06:23:05.515Z,15
2017-03-06T06:23:45.994Z,15
2017-03-06T06:24:26.456Z,15
2017-03-06T06:25:06.959Z,20
2017-03-06T06:25:47.461Z,20
2017-03-06T06:26:27.972Z,20
2017-03-06T06:27:08.463Z,25
2017-03-06T06:27:49.004Z,25
2017-03-06T06:28:29.474Z,25
2017-03-06T06:29:10.010Z,30
2017-03-06T06:29:50.495Z,30
2017-03-06T06:30:31.084Z,30
2017-03-06T06:31:11.620Z,35
2017-03-06T06:31:52.114Z,40
2017-03-06T06:32:32.583Z,40
2017-03-06T06:33:13.072Z,45
2017-03-06T06:33:53.599Z,45
2017-03-06T06:34:34.082Z,50
2017-03-06T06:35:14.586Z,50
2017-03-06T06:35:55.109Z,50
2017-03-06T06:36:35.532Z,50
2017-03-06T06:37:16.025Z,50
2017-03-06T06:37:56.522Z,45
2017-03-06T06:38:37.003Z,45
2017-03-06T06:39:17.950Z,45
2017-03-06T06:39:58.378Z,40
2017-03-06T06:40:39.114Z,40
2017-03-06T06:41:19.584Z,40
2017-03-06T06:41:59.996Z,40
2017-03-06T06:42:40.480Z,40
2017-03-06T06:43:21.001Z,40
2017-03-06T06:44:01.499Z,40
2017-03-06T06:44:41.967Z,40
2017-03-06T06:45:22.500Z,45
2017-03-06T06:46:03.044Z,45
2017-03-06T06:46:43.552Z,45
2017-03-06T06:47:24.017Z,45
2017-03-06T06:48:04.505Z,45
2017-03-06T06:48:45.055Z,45
2017-03-06T06:49:25.495Z,45
2017-03-06T06:50:06.066Z,45
2017-03-06T06:50:46.540Z,45
2017-03-06T06:51:27.007Z,40
2017-03-06T06:52:07.514Z,35
2017-03-06T06:52:48.042Z,35
2017-03-06T06:53:28.561Z,40
2017-03-06T06:54:09.076Z,40
2017-03-06T06:54:49.516Z,45
2017-03-06T06:55:30.148Z,45
2017-03-06T06:56:15.463Z,45
2017-03-06T06:56:55.930Z,45
2017-03-06T06:57:36.409Z,40
2017-03-06T06:58:17.029Z,40
2017-03-06T06:58:57.483Z,40
2017-03-06T06:59:37.953Z,35
2017-03-06T07:00:25.248Z,30
2017-03-06T07:01:01.703Z,35
2017-03-06T07:01:42.333Z,35
2017-03-06T07:02:22.885Z,35
2017-03-06T07:03:03.451Z,40
2017-03-06T07:05:47.590Z,30
2017-03-06T07:06:30.422Z,25
2017-03-06T07:09:18.508Z,35
2017-03-06T07:09:57.344Z,35
2017-03-06T07:12:23.808Z,40
2017-03-06T07:14:09.465Z,50
2017-03-06T07:14:56.582Z,55
2017-03-06T07:15:48.430Z,60
2017-03-06T07:16:32.561Z,65
2017-03-06T07:17:19.366Z,70
2017-03-06T07:17:59.888Z,70
2017-03-06T07:18:40.552Z,70
2017-03-06T07:19:20.906Z,75
2017-03-06T07:20:01.447Z,80
2017-03-06T07:20:42.630Z,75
2017-03-06T07:21:23.181Z,70
2017-03-06T07:22:03.652Z,75
2017-03-06T07:22:44.131Z,75
2017-03-06T07:23:24.601Z,75
2017-03-06T07:24:05.102Z,80
2017-03-06T07:24:45.583Z,80
2017-03-06T07:25:29.444Z,80
2017-03-06T07:26:09.948Z,75
2017-03-06T07:26:50.561Z,75
2017-03-06T07:27:32.692Z,75
2017-03-06T07:28:13.073Z,75
2017-03-06T07:28:53.529Z,75
2017-03-06T07:29:34.206Z,80
2017-03-06T07:30:15.800Z,85
2017-03-06T07:30:56.171Z,80
2017-03-06T07:31:36.656Z,85
2017-03-06T07:32:17.187Z,80
2017-03-06T07:32:57.659Z,80
2017-03-06T07:33:38.293Z,85
2017-03-06T07:34:18.662Z,85
2017-03-06T07:34:59.192Z,85
2017-03-06T07:35:39.675Z,90
2017-03-06T07:36:20.276Z,90
2017-03-06T07:37:00.774Z,95
2017-03-06T07:37:41.479Z,105
2017-03-06T07:38:21.965Z,120
2017-03-06T07:39:02.481Z,140
2017-03-06T07:39:43.230Z,160
2017-03-06T07:40:23.740Z,185
2017-03-06T07:41:04.618Z,200
2017-03-06T07:41:45.385Z,210
2017-03-06T07:42:25.815Z,210
2017-03-06T07:43:06.358Z,195
2017-03-06T07:43:46.927Z,175
2017-03-06T07:44:27.491Z,160
2017-03-06T07:45:07.948Z,150
2017-03-06T07:45:48.448Z,140
2017-03-06T07:46:28.879Z,130
2017-03-06T07:47:09.392Z,115
2017-03-06T07:47:49.959Z,105
2017-03-06T07:48:30.915Z,95
2017-03-06T07:49:11.379Z,85
2017-03-06T07:49:51.835Z,80
2017-03-06T07:50:32.347Z,75
2017-03-06T07:51:12.833Z,75
2017-03-06T07:51:53.484Z,80
2017-03-06T07:52:33.991Z,80
2017-03-06T07:53:14.515Z,80
2017-03-06T07:53:54.958Z,90
2017-03-06T07:54:35.920Z,95
2017-03-06T07:55:16.464Z,100
2017-03-06T07:55:56.920Z,105
2017-03-06T07:56:37.403Z,105
2017-03-06T07:57:17.916Z,100
2017-03-06T07:57:58.382Z,95
2017-03-06T07:58:38.853Z,90
2017-03-06T07:59:19.430Z,85
2017-03-06T07:59:59.915Z,80
2017-03-06T08:00:40.406Z,80
2017-03-06T08:01:21.098Z,80
2017-03-06T08:02:01.634Z,85
2017-03-06T08:02:42.126Z,85
2017-03-06T08:03:22.623Z,90
2017-03-06T08:04:03.144Z,95
2017-03-06T08:04:43.621Z,95
2017-03-06T08:05:24.139Z,90
2017-03-06T08:06:04.640Z,90
2017-03-06T08:06:45.156Z,90
2017-03-06T08:07:25.777Z,95
2017-03-06T08:08:06.218Z,90
2017-03-06T08:08:46.691Z,85
2017-03-06T08:09:27.197Z,85
2017-03-06T08:10:07.682Z,80
2017-03-06T08:10:48.185Z,85
2017-03-06T08:11:28.702Z,90
2017-03-06T08:12:09.176Z,90
2017-03-06T08:12:49.688Z,95
2017-03-06T08:13:30.186Z,95
2017-03-06T08:14:10.696Z,100
2017-03-06T08:14:51.186Z,110
2017-03-06T08:15:31.669Z,115
2017-03-06T08:16:12.177Z,125
2017-03-06T08:16:52.960Z,140
2017-03-06T08:17:33.497Z,145
2017-03-06T08:18:14.000Z,150
2017-03-06T08:18:54.467Z,150
2017-03-06T08:19:34.953Z,145
2017-03-06T08:20:15.438Z,155
2017-03-06T08:20:55.974Z,155
2017-03-06T08:21:36.485Z,145
2017-03-06T08:22:16.970Z,145
2017-03-06T08:22:57.478Z,140
2017-03-06T08:23:37.971Z,135
2017-03-06T08:24:18.488Z,130
2017-03-06T08:24:59.010Z,125
2017-03-06T08:25:39.469Z,120
2017-03-06T08:26:19.949Z,120
2017-03-06T08:27:00.456Z,115
2017-03-06T08:27:40.945Z,115
2017-03-06T08:28:21.446Z,125
2017-03-06T08:29:01.915Z,135
2017-03-06T08:29:42.431Z,130
2017-03-06T08:30:22.919Z,125
2017-03-06T08:31:03.393Z,130
2017-03-06T08:31:43.920Z,135
2017-03-06T08:32:24.418Z,140
2017-03-06T08:33:04.913Z,140
2017-03-06T08:33:45.421Z,135
2017-03-06T08:34:25.904Z,130
2017-03-06T08:35:06.443Z,135
2017-03-06T08:35:46.913Z,140
2017-03-06T08:36:27.437Z,145
2017-03-06T08:37:07.887Z,145
2017-03-06T08:37:48.349Z,145
2017-03-06T08:38:28.830Z,145
2017-03-06T08:39:09.357Z,150
2017-03-06T08:39:49.826Z,165
2017-03-06T08:40:30.376Z,155
2017-03-06T08:41:10.920Z,150
2017-03-06T08:41:51.291Z,155
2017-03-06T08:42:31.816Z,155
2017-03-06T08:43:12.298Z,165
2017-03-06T08:43:52.831Z,170
2017-03-06T08:44:33.265Z,165
2017-03-06T08:45:13.794Z,155
2017-03-06T08:45:54.214Z,155
2017-03-06T08:46:34.741Z,155
2017-03-06T08:47:15.187Z,150
2017-03-06T08:47:55.761Z,145
2017-03-06T08:48:36.253Z,145
2017-03-06T08:49:16.845Z,140
2017-03-06T08:49:57.525Z,145
2017-03-06T08:50:38.082Z,140
2017-03-06T08:51:18.728Z,130
2017-03-06T08:51:59.275Z,125
2017-03-06T08:52:39.696Z,125
2017-03-06T08:53:20.285Z,120
2017-03-06T08:54:00.709Z,115
2017-03-06T08:54:41.182Z,115
2017-03-06T08:55:21.683Z,115
2017-03-06T08:56:02.186Z,105
2017-03-06T08:56:42.851Z,110
2017-03-06T08:57:23.366Z,120
2017-03-06T08:58:03.830Z,120
2017-03-06T08:58:44.315Z,110
2017-03-06T08:59:24.832Z,105
2017-03-06T09:00:05.341Z,110
2017-03-06T09:00:45.766Z,105
2017-03-06T09:01:26.429Z,110
2017-03-06T09:02:06.900Z,115
2017-03-06T09:02:47.426Z,120
2017-03-06T09:03:27.892Z,125
2017-03-06T09:04:08.375Z,135
2017-03-06T09:04:48.878Z,130
2017-03-06T09:05:29.396Z,135
2017-03-06T09:06:09.878Z,130
2017-03-06T09:06:50.377Z,125
2017-03-06T09:07:30.951Z,115
2017-03-06T09:08:11.459Z,120
2017-03-06T09:08:51.899Z,120
2017-03-06T09:09:32.413Z,115
2017-03-06T09:10:12.909Z,110
2017-03-06T09:10:53.430Z,105
2017-03-06T09:11:34.072Z,105
2017-03-06T09:12:14.717Z,95
2017-03-06T09:12:55.327Z,95
2017-03-06T09:13:35.795Z,95
2017-03-06T09:14:16.448Z,105
2017-03-06T09:14:57.016Z,120
2017-03-06T09:15:37.520Z,125
2017-03-06T09:16:18.053Z,145
2017-03-06T09:16:58.551Z,145
2017-03-06T09:17:39.011Z,125
2017-03-06T09:18:19.513Z,115
2017-03-06T09:19:00.075Z,120
2017-03-06T09:19:40.483Z,120
2017-03-06T09:20:21.024Z,125
2017-03-06T09:21:01.554Z,145
2017-03-06T09:21:42.024Z,130
2017-03-06T09:22:22.536Z,130
2017-03-06T09:23:03.060Z,135
2017-03-06T09:23:43.511Z,145
2017-03-06T09:24:24.103Z,150
2017-03-06T09:25:04.541Z,150
2017-03-06T09:25:45.031Z,155
2017-03-06T09:26:25.507Z,155
2017-03-06T09:27:06.014Z,155
2017-03-06T09:27:46.481Z,145
2017-03-06T09:28:26.982Z,145
2017-03-06T09:29:07.499Z,145
2017-03-06T09:29:48.011Z,135
2017-03-06T09:30:28.581Z,135
2017-03-06T09:31:09.077Z,140
2017-03-06T09:31:49.568Z,145
2017-03-06T09:32:30.114Z,145
2017-03-06T09:33:10.575Z,135
2017-03-06T09:33:51.032Z,130
2017-03-06T09:34:31.549Z,130
2017-03-06T09:35:12.061Z,140
2017-03-06T09:35:52.455Z,145
2017-03-06T09:36:33.056Z,150
2017-03-06T09:37:13.750Z,140
2017-03-06T09:37:54.240Z,140
2017-03-06T09:38:34.729Z,145
2017-03-06T09:39:15.202Z,145
2017-03-06T09:39:55.661Z,155
2017-03-06T09:40:36.213Z,160
2017-03-06T09:41:16.718Z,160
2017-03-06T09:41:57.178Z,155
2017-03-06T09:42:37.694Z,150
2017-03-06T09:43:18.223Z,150
2017-03-06T09:43:58.709Z,150
2017-03-06T09:44:39.358Z,150
2017-03-06T09:45:19.889Z,165
2017-03-06T09:46:00.342Z,165
2017-03-06T09:46:40.898Z,160
2017-03-06T09:47:21.359Z,155
2017-03-06T09:48:01.838Z,160
2017-03-06T09:48:42.349Z,170
2017-03-06T09:49:22.852Z,180
2017-03-06T09:50:03.333Z,195
2017-03-06T09:50:43.891Z,200
2017-03-06T09:51:24.288Z,200
2017-03-06T09:52:04.805Z,205
2017-03-06T09:52:45.325Z,210
2017-03-06T09:53:25.762Z,220
2017-03-06T09:54:06.349Z,225
2017-03-06T09:54:46.820Z,230
2017-03-06T09:55:27.425Z,250
2017-03-06T09:56:07.907Z,260